Time;durP1;ratioP1;P1;durP2;ratioP2;P2;SDS_P1;SDS_P2;PMS_P1;PMS_P2;Temp;Humidity;BMP_temperature;BMP_pressure;BME280_temperature;BME280_humidity;BME280_pressure;Samples;Min_cycle;Max_cycle;Signal;HPM_P1;HPM_P2
2024/02/12 21:15:58;;;;;;;44.60;24.60;;;;;;;-0.38;100.00;142181.53;103828;1301;545671;-69
2024/02/12 21:18:44;;;;;;;32.90;16.60;;;;;;;-0.44;100.00;142168.13;106192;1273;22547;-66
2024/02/12 21:21:31;;;;;;;43.30;23.20;;;;;;;-0.43;100.00;142169.63;106175;1269;22661;-68
2024/02/12 21:24:18;;;;;;;33.30;17.30;;;;;;;-0.46;100.00;142164.13;106031;1273;25601;-66
2024/02/12 21:27:09;;;;;;;31.40;18.50;;;;;;;-0.44;100.00;142168.63;106201;1276;25235;-65
2024/02/12 21:29:58;;;;;;;32.10;15.70;;;;;;;-0.48;100.00;142159.92;106344;1270;102447;-70
2024/02/12 21:32:50;;;;;;;33.90;17.90;;;;;;;-0.49;100.00;142155.22;106443;1267;24223;-73
2024/02/12 21:35:37;;;;;;;37.10;19.60;;;;;;;-0.51;100.00;142151.95;106603;1263;25383;-74
2024/02/12 21:38:31;;;;;;;35.50;20.60;;;;;;;-0.57;100.00;142136.31;106829;1277;22529;-65
2024/02/12 21:44:22;;;;;;;39.70;20.30;;;;;;;-0.62;100.00;142123.88;106526;1263;24983;-74
2024/02/12 21:47:09;;;;;;;43.00;20.90;;;;;;;-0.62;100.00;142123.64;107146;1257;22529;-67
2024/02/12 21:49:55;;;;;;;30.90;17.80;;;;;;;-0.63;100.00;142120.17;107324;1262;24258;-69
2024/02/12 21:52:42;;;;;;;38.70;22.40;;;;;;;-0.61;100.00;142127.38;107093;1265;22523;-70
2024/02/12 21:55:29;;;;;;;37.00;20.10;;;;;;;-0.56;100.00;142139.80;107025;1253;25376;-74
2024/02/12 21:58:16;;;;;;;31.40;18.10;;;;;;;-0.54;100.00;142142.53;107209;1257;24213;-68
2024/02/12 22:01:03;;;;;;;34.40;18.20;;;;;;;-0.55;100.00;142140.80;107093;1259;24207;-75
2024/02/12 22:03:51;;;;;;;42.10;21.60;;;;;;;-0.59;100.00;142132.09;107418;1264;22550;-69
2024/02/12 22:06:37;;;;;;;30.30;18.60;;;;;;;-0.66;100.00;142114.95;107033;1262;24237;-74
2024/02/12 22:09:24;;;;;;;36.30;20.10;;;;;;;-0.73;100.00;142097.58;106840;1265;25236;-68
2024/02/12 22:12:11;;;;;;;29.70;16.00;;;;;;;-0.75;100.00;142092.59;107280;1261;22520;-72
2024/02/12 22:14:57;;;;;;;29.00;18.80;;;;;;;-0.79;100.00;142083.39;107082;1272;23975;-73
2024/02/12 22:17:44;;;;;;;26.30;15.30;;;;;;;-0.82;100.00;142075.20;106891;1265;22530;-79
2024/02/12 22:20:30;;;;;;;25.90;15.90;;;;;;;-0.85;100.00;142068.75;106777;1274;22766;-67
2024/02/12 22:23:17;;;;;;;30.20;16.40;;;;;;;-0.86;100.00;142065.50;106732;1274;24221;-72
2024/02/12 22:26:04;;;;;;;36.10;17.50;;;;;;;-0.87;100.00;142063.28;110578;1273;22950;-68
2024/02/12 22:28:50;;;;;;;29.70;15.50;;;;;;;-0.88;100.00;142061.53;110574;1273;22136;-65
2024/02/12 22:31:37;;;;;;;28.70;15.80;;;;;;;-0.88;100.00;142061.28;110615;1273;22187;-72
2024/02/12 22:34:23;;;;;;;31.10;16.80;;;;;;;-0.88;100.00;142061.78;110591;1273;22210;-66
2024/02/12 22:37:13;;;;;;;27.30;16.30;;;;;;;-0.86;100.00;142065.75;110575;1272;22124;-61
2024/02/12 22:40:01;;;;;;;34.80;17.10;;;;;;;-0.86;100.00;142065.28;110653;1273;22250;-63
2024/02/12 22:42:47;;;;;;;30.30;15.70;;;;;;;-0.88;100.00;142062.03;110626;1272;22124;-61
2024/02/12 22:45:33;;;;;;;25.70;14.10;;;;;;;-0.89;100.00;142060.53;110644;1272;22241;-64
2024/02/12 22:48:19;;;;;;;27.60;14.90;;;;;;;-0.89;100.00;142060.30;110595;1266;22399;-62
2024/02/12 22:51:06;;;;;;;24.50;13.60;;;;;;;-0.89;100.00;142059.53;110628;1273;23012;-62
2024/02/12 22:53:51;;;;;;;25.60;14.90;;;;;;;-0.91;100.00;142054.83;110611;1260;22200;-64
2024/02/12 22:56:37;;;;;;;27.50;15.10;;;;;;;-0.92;100.00;142051.34;110626;1273;22166;-63
2024/02/12 22:59:23;;;;;;;25.20;14.00;;;;;;;-0.93;100.00;142050.34;110590;1273;22134;-60
2024/02/12 23:02:10;;;;;;;32.30;15.20;;;;;;;-0.91;100.00;142053.09;110652;1256;22125;-63
2024/02/12 23:04:56;;;;;;;21.40;12.30;;;;;;;-0.89;100.00;142058.78;110588;1273;22078;-63
2024/02/12 23:07:43;;;;;;;28.10;14.70;;;;;;;-0.89;100.00;142059.78;110617;1273;22152;-61
2024/02/12 23:10:29;;;;;;;22.60;12.80;;;;;;;-0.91;100.00;142054.58;110582;1273;22143;-64
2024/02/12 23:13:16;;;;;;;24.30;12.40;;;;;;;-0.91;100.00;142053.84;110612;1273;22145;-64
2024/02/12 23:16:03;;;;;;;24.90;13.10;;;;;;;-0.92;100.00;142052.59;110604;1273;22792;-60
2024/02/12 23:18:49;;;;;;;23.40;11.30;;;;;;;-0.92;100.00;142051.84;110587;1273;22137;-64
2024/02/12 23:21:36;;;;;;;24.70;12.10;;;;;;;-0.91;100.00;142053.33;110592;1273;22151;-61
2024/02/12 23:24:22;;;;;;;28.50;11.60;;;;;;;-0.90;100.00;142057.80;110571;1273;22235;-62
2024/02/12 23:27:10;;;;;;;26.50;11.70;;;;;;;-0.90;100.00;142056.80;110618;1273;22132;-65
2024/02/12 23:29:56;;;;;;;21.20;11.00;;;;;;;-0.90;100.00;142057.55;110548;1265;22976;-63
2024/02/12 23:32:45;;;;;;;20.50;10.10;;;;;;;-0.89;100.00;142058.78;110607;1262;22228;-61
2024/02/12 23:35:32;;;;;;;22.70;9.80;;;;;;;-0.89;100.00;142060.55;110658;1259;22231;-64
2024/02/12 23:38:19;;;;;;;19.70;10.10;;;;;;;-0.86;100.00;142065.52;110593;1272;22157;-60
2024/02/12 23:41:05;;;;;;;18.80;9.00;;;;;;;-0.85;100.00;142068.00;110572;1273;22770;-62
2024/02/12 23:43:53;;;;;;;23.70;10.50;;;;;;;-0.83;100.00;142072.97;110557;1272;22136;-61
2024/02/12 23:46:40;;;;;;;21.90;10.60;;;;;;;-0.84;100.00;142071.25;110592;1273;22122;-62
2024/02/12 23:49:26;;;;;;;20.80;9.50;;;;;;;-0.81;100.00;142079.17;110617;1272;22130;-66
2024/02/12 23:52:15;;;;;;;19.20;10.70;;;;;;;-0.80;100.00;142081.41;110568;1272;22865;-65
2024/02/12 23:55:01;;;;;;;20.70;9.90;;;;;;;-0.81;100.00;142078.19;110580;1273;22214;-65
2024/02/12 23:57:47;;;;;;;24.70;9.90;;;;;;;-0.84;100.00;142070.00;110593;1272;22142;-62
